createdAt,value
2022-10-23T00:00:13.311Z,37.28
2022-10-23T00:02:39.981Z,36.17
2022-10-23T00:05:06.769Z,37.85
2022-10-23T00:07:33.205Z,32.60
2022-10-23T00:09:59.518Z,34.15
2022-10-23T00:12:28.073Z,33.85
2022-10-23T00:14:54.420Z,31.73
2022-10-23T00:17:20.748Z,31.70
2022-10-23T00:19:47.058Z,31.63
2022-10-23T00:22:13.396Z,31.73
2022-10-23T00:24:39.734Z,32.28
2022-10-23T00:27:06.062Z,31.88
2022-10-23T00:29:32.497Z,31.92
2022-10-23T00:31:58.935Z,30.20
2022-10-23T00:34:25.243Z,31.40
2022-10-23T00:36:51.570Z,31.20
2022-10-23T00:39:17.857Z,30.40
2022-10-23T00:41:44.282Z,31.33
2022-10-23T00:44:30.488Z,32.42
2022-10-23T00:46:58.562Z,29.98
2022-10-23T00:49:25.543Z,32.65
2022-10-23T00:51:55.601Z,31.33
2022-10-23T00:54:25.652Z,34.90
2022-10-23T00:56:56.042Z,33.92
2022-10-23T00:59:22.693Z,30.25
2022-10-23T01:01:49.291Z,32.45
2022-10-23T01:04:16.115Z,32.45
2022-10-23T01:07:05.476Z,31.42
2022-10-23T01:09:36.322Z,32.50
2022-10-23T01:12:15.281Z,33.83
2022-10-23T01:15:09.898Z,30.92
2022-10-23T01:17:56.824Z,29.13
2022-10-23T01:20:31.727Z,30.73
2022-10-23T01:23:10.371Z,29.90
2022-10-23T01:26:05.725Z,30.02
2022-10-23T01:28:42.274Z,28.48
2022-10-23T01:31:14.293Z,28.85
2022-10-23T01:33:52.418Z,28.42
2022-10-23T01:36:23.719Z,30.83
2022-10-23T01:39:11.994Z,29.25
2022-10-23T01:41:46.535Z,30.05
2022-10-23T01:44:26.367Z,30.15
2022-10-23T01:46:53.977Z,30.13
2022-10-23T01:49:22.607Z,29.30
2022-10-23T01:51:53.871Z,29.67
2022-10-23T01:54:25.510Z,30.73
2022-10-23T01:56:52.968Z,30.25
2022-10-23T01:59:26.989Z,29.83
2022-10-23T02:01:56.306Z,30.17
2022-10-23T02:04:55.330Z,31.08
2022-10-23T02:07:21.899Z,33.10
2022-10-23T02:09:48.345Z,30.20
2022-10-23T02:12:47.562Z,30.50
2022-10-23T02:15:38.499Z,31.65
2022-10-23T02:18:27.634Z,29.63
2022-10-23T02:20:58.982Z,31.92
2022-10-23T02:24:01.434Z,30.65
2022-10-23T02:26:35.065Z,31.67
2022-10-23T02:29:27.737Z,30.83
2022-10-23T02:31:54.156Z,31.90
2022-10-23T02:34:20.500Z,31.45
2022-10-23T02:36:47.068Z,31.33
2022-10-23T02:39:13.447Z,30.42
2022-10-23T02:42:03.388Z,30.73
2022-10-23T02:45:01.073Z,30.52
2022-10-23T02:47:39.611Z,30.13
2022-10-23T02:50:42.036Z,30.85
2022-10-23T02:53:20.211Z,33.80
2022-10-23T02:55:55.391Z,33.30
2022-10-23T02:58:43.426Z,34.15
2022-10-23T03:01:14.691Z,36.72
2022-10-23T03:03:55.276Z,33.58
2022-10-23T03:06:23.176Z,36.38
2022-10-23T03:08:53.832Z,35.30
2022-10-23T03:11:20.773Z,33.25
2022-10-23T03:13:47.068Z,35.33
2022-10-23T03:16:13.462Z,34.90
2022-10-23T03:18:39.796Z,33.80
2022-10-23T03:21:06.314Z,37.47
2022-10-23T03:23:32.684Z,35.70
2022-10-23T03:25:58.989Z,35.75
2022-10-23T03:28:25.303Z,33.95
2022-10-23T03:30:52.297Z,33.35
2022-10-23T03:33:18.768Z,34.03
2022-10-23T03:35:45.629Z,36.15
2022-10-23T03:38:11.978Z,36.03
2022-10-23T03:40:38.316Z,35.85
2022-10-23T03:43:04.658Z,35.53
2022-10-23T03:45:32.449Z,38.05
2022-10-23T03:47:58.741Z,36.80
2022-10-23T03:50:25.210Z,36.33
2022-10-23T03:52:51.651Z,35.97
2022-10-23T03:55:18.032Z,37.95
2022-10-23T03:57:44.343Z,37.42
2022-10-23T04:00:11.053Z,36.47
2022-10-23T04:02:37.454Z,37.58
2022-10-23T04:05:03.962Z,37.65
2022-10-23T04:07:30.302Z,36.50
2022-10-23T04:09:56.596Z,37.22
2022-10-23T04:12:22.953Z,34.63
2022-10-23T04:14:49.251Z,35.15
2022-10-23T04:17:15.638Z,37.03
2022-10-23T04:19:41.965Z,35.28
2022-10-23T04:22:08.343Z,34.83
2022-10-23T04:24:34.749Z,36.33
2022-10-23T04:27:01.081Z,34.88
2022-10-23T04:29:29.318Z,35.42
2022-10-23T04:31:55.798Z,35.35
2022-10-23T04:34:22.225Z,34.80
2022-10-23T04:36:48.524Z,35.13
2022-10-23T04:39:14.878Z,36.33
2022-10-23T04:41:41.246Z,33.05
2022-10-23T04:44:08.251Z,34.67
2022-10-23T04:46:34.583Z,35.47
2022-10-23T04:49:00.870Z,34.92
2022-10-23T04:51:27.325Z,34.20
2022-10-23T04:53:53.617Z,33.05
2022-10-23T04:56:20.048Z,33.47
2022-10-23T04:58:46.404Z,33.53
2022-10-23T05:01:12.770Z,34.20
2022-10-23T05:03:39.355Z,32.40
2022-10-23T05:06:06.071Z,35.25
2022-10-23T05:08:32.517Z,32.20
2022-10-23T05:10:58.902Z,32.97
2022-10-23T05:13:25.346Z,32.50
2022-10-23T05:15:53.092Z,34.95
2022-10-23T05:18:35.247Z,33.80
2022-10-23T05:21:26.895Z,34.05
2022-10-23T05:23:54.623Z,34.70
2022-10-23T05:26:22.335Z,33.13
2022-10-23T05:28:49.247Z,31.85
2022-10-23T05:31:17.557Z,35.20
2022-10-23T05:33:44.196Z,32.80
2022-10-23T05:36:12.534Z,35.35
2022-10-23T05:38:39.069Z,33.55
2022-10-23T05:41:05.424Z,34.80
2022-10-23T05:43:31.800Z,32.83
2022-10-23T05:45:58.552Z,33.17
2022-10-23T05:48:35.793Z,34.03
2022-10-23T05:51:10.078Z,33.65
2022-10-23T05:53:38.876Z,34.00
2022-10-23T05:56:08.946Z,33.25
2022-10-23T05:58:35.491Z,34.28
2022-10-23T06:01:09.535Z,33.35
2022-10-23T06:03:37.146Z,35.85
2022-10-23T06:06:04.126Z,33.47
2022-10-23T06:08:31.286Z,35.03
2022-10-23T06:10:57.882Z,32.72
2022-10-23T06:13:24.243Z,32.35
2022-10-23T06:15:50.593Z,33.97
2022-10-23T06:18:17.028Z,32.42
2022-10-23T06:20:44.182Z,32.45
2022-10-23T06:23:10.501Z,32.00
2022-10-23T06:25:36.837Z,31.63
2022-10-23T06:28:03.156Z,33.03
2022-10-23T06:30:29.522Z,34.03
2022-10-23T06:32:55.952Z,32.33
2022-10-23T06:35:22.787Z,32.95
2022-10-23T06:37:49.143Z,31.67
2022-10-23T06:40:15.486Z,29.92
2022-10-23T06:42:42.056Z,30.80
2022-10-23T06:45:09.000Z,32.08
2022-10-23T06:47:35.389Z,34.00
2022-10-23T06:50:01.817Z,31.70
2022-10-23T06:52:47.825Z,33.03
2022-10-23T06:55:14.654Z,31.48
2022-10-23T06:57:41.377Z,34.13
2022-10-23T07:00:08.530Z,31.77
2022-10-23T07:02:34.972Z,32.20
2022-10-23T07:05:01.443Z,31.83
2022-10-23T07:07:30.201Z,33.25
2022-10-23T07:09:56.799Z,31.88
2022-10-23T07:12:23.171Z,32.20
2022-10-23T07:14:49.510Z,33.75
2022-10-23T07:17:15.844Z,32.00
2022-10-23T07:19:42.151Z,32.58
2022-10-23T07:22:10.759Z,32.25
2022-10-23T07:24:40.146Z,30.67
2022-10-23T07:27:06.538Z,32.30
2022-10-23T07:29:33.273Z,35.63
2022-10-23T07:32:04.367Z,33.47
2022-10-23T07:34:31.582Z,30.85
2022-10-23T07:36:57.966Z,33.47
2022-10-23T07:39:24.267Z,33.10
2022-10-23T07:41:50.655Z,33.13
2022-10-23T07:44:17.537Z,33.88
2022-10-23T07:46:44.853Z,32.50
2022-10-23T07:49:11.443Z,33.35
2022-10-23T07:51:37.773Z,32.58
2022-10-23T07:54:04.160Z,33.80
2022-10-23T07:56:31.338Z,33.15
2022-10-23T07:58:57.866Z,33.35
2022-10-23T08:01:31.602Z,33.38
2022-10-23T08:03:58.623Z,32.45
2022-10-23T08:06:25.043Z,36.50
2022-10-23T08:08:51.437Z,33.25
2022-10-23T08:11:25.684Z,35.00
2022-10-23T08:13:55.911Z,34.47
2022-10-23T08:16:22.851Z,39.42
2022-10-23T08:18:50.368Z,37.58
2022-10-23T08:21:17.959Z,40.13
2022-10-23T08:23:44.811Z,37.38
2022-10-23T08:26:11.804Z,33.67
2022-10-23T08:28:38.434Z,35.88
2022-10-23T08:31:09.985Z,35.22
2022-10-23T08:33:37.027Z,36.55
2022-10-23T08:36:03.861Z,33.90
2022-10-23T08:38:30.194Z,33.50
2022-10-23T08:40:56.533Z,33.47
2022-10-23T08:43:34.328Z,31.50
2022-10-23T08:46:08.653Z,29.52
2022-10-23T08:48:48.977Z,31.23
2022-10-23T08:51:25.688Z,30.15
2022-10-23T08:54:00.047Z,29.42
2022-10-23T08:59:15.010Z,32.00
2022-10-23T09:01:49.499Z,30.33
2022-10-23T09:04:16.427Z,30.63
2022-10-23T09:07:15.935Z,31.42
2022-10-23T09:10:03.301Z,32.90
2022-10-23T09:12:31.119Z,29.67
2022-10-23T09:15:15.489Z,30.13
2022-10-23T09:17:44.135Z,31.80
2022-10-23T09:20:17.889Z,31.95
2022-10-23T09:22:45.285Z,33.73
2022-10-23T09:25:26.728Z,32.70
2022-10-23T09:28:00.072Z,32.50
2022-10-23T09:30:35.659Z,34.45
2022-10-23T09:33:21.609Z,33.80
2022-10-23T09:35:55.708Z,32.45
2022-10-23T09:38:27.723Z,31.88
2022-10-23T09:40:54.231Z,32.13
2022-10-23T09:43:23.997Z,29.45
2022-10-23T09:46:02.654Z,30.02
2022-10-23T09:48:29.489Z,29.10
2022-10-23T09:51:23.634Z,28.02
2022-10-23T09:53:58.927Z,29.67
2022-10-23T09:56:39.894Z,32.72
2022-10-23T09:59:22.311Z,28.13
2022-10-23T10:01:52.554Z,27.02
2022-10-23T10:04:19.317Z,27.85
2022-10-23T10:06:45.688Z,25.83
2022-10-23T10:09:14.850Z,25.20
2022-10-23T10:11:46.261Z,23.58
2022-10-23T10:14:27.714Z,25.63
2022-10-23T10:17:01.037Z,22.83
2022-10-23T10:20:03.958Z,22.88
2022-10-23T10:22:54.482Z,25.85
2022-10-23T10:25:38.253Z,23.15
2022-10-23T10:28:26.279Z,25.13
2022-10-23T10:30:55.696Z,24.20
2022-10-23T10:33:45.740Z,24.65
2022-10-23T10:36:37.801Z,26.60
2022-10-23T10:39:11.843Z,25.73
2022-10-23T10:42:08.855Z,28.85
2022-10-23T10:44:53.577Z,26.50
2022-10-23T10:50:16.945Z,24.17
2022-10-23T10:52:58.443Z,24.77
2022-10-23T10:55:33.833Z,26.52
2022-10-23T10:58:13.718Z,26.17
2022-10-23T11:00:40.606Z,25.13
2022-10-23T11:03:25.744Z,24.45
2022-10-23T11:05:55.832Z,24.58
2022-10-23T11:08:44.394Z,25.38
2022-10-23T11:11:30.007Z,24.77
2022-10-23T11:13:57.493Z,24.75
2022-10-23T11:16:29.133Z,25.70
2022-10-23T11:19:30.960Z,24.83
2022-10-23T11:22:04.836Z,25.38
2022-10-23T11:24:58.223Z,26.13
2022-10-23T11:27:46.716Z,25.92
2022-10-23T11:30:22.506Z,23.45
2022-10-23T11:32:56.745Z,22.40
2022-10-23T11:35:45.297Z,21.75
2022-10-23T11:38:23.601Z,21.52
2022-10-23T11:40:57.052Z,18.58
2022-10-23T11:43:33.347Z,16.67
2022-10-23T11:46:13.275Z,16.17
2022-10-23T11:48:42.245Z,15.48
2022-10-23T11:51:34.675Z,17.55
2022-10-23T11:54:10.065Z,18.73
2022-10-23T11:56:57.774Z,17.65
2022-10-23T11:59:48.734Z,18.65
2022-10-23T12:02:28.733Z,19.05
2022-10-23T12:04:55.471Z,20.15
2022-10-23T12:07:29.659Z,20.58
2022-10-23T12:09:59.801Z,20.77
2022-10-23T12:12:31.071Z,18.17
2022-10-23T12:15:11.683Z,17.73
2022-10-23T12:17:40.212Z,19.75
2022-10-23T12:20:12.401Z,18.95
2022-10-23T12:22:44.309Z,19.02
2022-10-23T12:25:17.209Z,19.45
2022-10-23T12:28:10.435Z,21.38
2022-10-23T12:33:30.299Z,22.10
2022-10-23T12:36:28.163Z,22.23
2022-10-23T12:38:58.372Z,22.33
2022-10-23T12:41:27.912Z,23.90
2022-10-23T12:43:57.873Z,20.25
2022-10-23T12:46:39.217Z,21.73
2022-10-23T12:49:15.166Z,21.45
2022-10-23T12:51:41.569Z,22.08
2022-10-23T12:54:19.954Z,19.90
2022-10-23T12:56:47.089Z,18.75
2022-10-23T12:59:37.915Z,20.02
2022-10-23T13:02:33.833Z,17.65
2022-10-23T13:05:03.655Z,18.45
2022-10-23T13:07:34.050Z,17.83
2022-10-23T13:10:01.731Z,17.25
2022-10-23T13:12:34.800Z,15.75
2022-10-23T13:15:03.403Z,18.40
2022-10-23T13:17:47.689Z,17.77
2022-10-23T13:20:26.829Z,17.40
2022-10-23T13:23:01.820Z,18.08
2022-10-23T13:25:33.318Z,19.08
2022-10-23T13:28:14.896Z,17.38
2022-10-23T13:30:45.807Z,19.00
2022-10-23T13:33:22.634Z,18.48
2022-10-23T13:36:00.382Z,19.15
2022-10-23T13:38:37.679Z,18.75
2022-10-23T13:41:06.328Z,18.92
2022-10-23T13:43:34.107Z,20.23
2022-10-23T13:46:01.049Z,20.50
2022-10-23T13:48:28.294Z,19.90
2022-10-23T13:51:06.257Z,19.88
2022-10-23T13:53:33.220Z,19.90
2022-10-23T13:55:59.922Z,20.77
2022-10-23T13:58:26.403Z,22.08
2022-10-23T14:00:53.193Z,21.88
2022-10-23T14:03:24.106Z,23.10
2022-10-23T14:05:51.299Z,23.92
2022-10-23T14:08:17.969Z,24.10
2022-10-23T14:10:45.606Z,24.73
2022-10-23T14:13:12.137Z,23.70
2022-10-23T14:15:38.735Z,23.13
2022-10-23T14:18:08.177Z,22.30
2022-10-23T14:20:35.174Z,23.15
2022-10-23T14:23:01.977Z,22.35
2022-10-23T14:25:28.504Z,23.60
2022-10-23T14:30:26.548Z,22.15
2022-10-23T14:32:53.012Z,22.88
2022-10-23T14:35:19.741Z,22.17
2022-10-23T14:37:46.629Z,23.33
2022-10-23T14:40:13.622Z,23.40
2022-10-23T14:42:40.093Z,23.65
2022-10-23T14:45:07.137Z,24.95
2022-10-23T14:47:33.668Z,26.67
2022-10-23T14:50:00.609Z,24.88
2022-10-23T14:52:27.247Z,24.90
2022-10-23T14:54:53.948Z,24.88
2022-10-23T14:57:22.031Z,24.60
2022-10-23T14:59:49.726Z,23.85
2022-10-23T15:02:17.059Z,23.50
2022-10-23T15:04:43.568Z,26.30
2022-10-23T15:07:10.115Z,26.17
2022-10-23T15:09:37.373Z,25.35
2022-10-23T15:12:05.133Z,28.05
2022-10-23T15:14:32.365Z,25.55
2022-10-23T15:16:58.948Z,26.85
2022-10-23T15:19:25.930Z,26.65
2022-10-23T15:21:52.677Z,25.52
2022-10-23T15:24:21.177Z,26.92
2022-10-23T15:26:48.557Z,25.50
2022-10-23T15:29:16.027Z,24.90
2022-10-23T15:31:53.323Z,32.45
2022-10-23T15:34:23.333Z,33.78
2022-10-23T15:36:51.690Z,45.20
2022-10-23T15:39:22.163Z,55.03
2022-10-23T15:41:52.451Z,62.08
2022-10-23T15:44:21.452Z,73.38
2022-10-23T15:46:48.726Z,68.88
2022-10-23T15:49:15.997Z,59.60
2022-10-23T15:51:43.408Z,52.92
2022-10-23T15:54:16.672Z,51.65
2022-10-23T15:56:44.393Z,49.80
2022-10-23T15:59:11.688Z,47.22
2022-10-23T16:01:38.606Z,45.88
2022-10-23T16:04:05.223Z,46.28
2022-10-23T16:06:32.262Z,47.03
2022-10-23T16:08:59.503Z,44.20
2022-10-23T16:11:29.535Z,46.25
2022-10-23T16:13:58.757Z,48.58
2022-10-23T16:16:26.682Z,47.05
2022-10-23T16:18:53.632Z,42.35
2022-10-23T16:21:21.877Z,43.15
2022-10-23T16:23:48.997Z,43.90
2022-10-23T16:26:16.199Z,47.90
2022-10-23T16:28:44.834Z,45.42
2022-10-23T16:31:19.371Z,48.42
2022-10-23T16:36:14.359Z,40.67
2022-10-23T16:38:41.099Z,43.67
2022-10-23T16:41:07.989Z,48.03
2022-10-23T16:43:34.739Z,48.17
2022-10-23T16:46:05.264Z,46.90
2022-10-23T16:48:33.649Z,46.40
2022-10-23T16:51:01.392Z,48.10
2022-10-23T16:53:30.994Z,49.15
2022-10-23T16:55:58.354Z,49.30
2022-10-23T16:58:26.178Z,49.03
2022-10-23T17:01:05.926Z,48.15
2022-10-23T17:03:41.978Z,46.03
2022-10-23T17:06:11.459Z,45.20
2022-10-23T17:08:38.440Z,49.95
2022-10-23T17:11:07.804Z,49.00
2022-10-23T17:13:35.434Z,48.47
2022-10-23T17:16:07.589Z,45.92
2022-10-23T17:18:36.802Z,46.13
2022-10-23T17:21:05.298Z,44.90
2022-10-23T17:23:31.704Z,45.05
2022-10-23T17:25:58.947Z,46.58
2022-10-23T17:28:25.581Z,47.10
2022-10-23T17:30:52.360Z,44.58
2022-10-23T17:33:19.229Z,46.63
2022-10-23T17:35:46.228Z,43.97
2022-10-23T17:38:17.907Z,43.55
2022-10-23T17:43:17.154Z,38.95
2022-10-23T17:45:45.166Z,40.83
2022-10-23T17:48:13.251Z,43.13
2022-10-23T17:50:40.863Z,41.60
2022-10-23T17:53:08.004Z,42.55
2022-10-23T17:55:41.202Z,43.17
2022-10-23T17:58:08.324Z,47.25
2022-10-23T18:00:36.555Z,44.33
2022-10-23T18:03:03.837Z,46.63
2022-10-23T18:05:33.217Z,44.80
2022-10-23T18:08:00.097Z,45.20
2022-10-23T18:10:26.712Z,43.67
2022-10-23T18:12:53.203Z,44.83
2022-10-23T18:15:19.710Z,44.15
2022-10-23T18:17:46.305Z,39.35
2022-10-23T18:20:14.644Z,37.53
2022-10-23T18:22:41.027Z,36.83
2022-10-23T18:25:07.914Z,31.83
2022-10-23T18:27:34.331Z,27.42
2022-10-23T18:30:00.830Z,29.08
2022-10-23T18:32:27.828Z,28.92
2022-10-23T18:34:54.166Z,31.45
2022-10-23T18:37:20.480Z,30.70
2022-10-23T18:39:46.793Z,30.58
2022-10-23T18:42:13.202Z,30.67
2022-10-23T18:44:39.578Z,29.20
2022-10-23T18:47:05.981Z,30.65
2022-10-23T18:49:32.373Z,30.90
2022-10-23T18:51:58.780Z,29.98
2022-10-23T18:54:25.114Z,29.92
2022-10-23T18:56:51.421Z,29.58
2022-10-23T18:59:20.725Z,28.73
2022-10-23T19:01:47.697Z,27.73
2022-10-23T19:04:19.943Z,27.35
2022-10-23T19:06:53.163Z,28.17
2022-10-23T19:09:24.475Z,28.13
2022-10-23T19:11:55.432Z,28.65
2022-10-23T19:14:21.742Z,29.33
2022-10-23T19:17:00.088Z,30.88
2022-10-23T19:19:37.278Z,30.98
2022-10-23T19:22:04.574Z,30.10
2022-10-23T19:24:40.786Z,29.42
2022-10-23T19:27:07.965Z,28.25
2022-10-23T19:29:38.109Z,25.10
2022-10-23T19:32:04.667Z,27.10
2022-10-23T19:34:31.099Z,24.30
2022-10-23T19:36:57.462Z,26.77
2022-10-23T19:39:25.666Z,25.90
2022-10-23T19:41:53.171Z,24.17
2022-10-23T19:44:20.811Z,23.25
2022-10-23T19:46:48.151Z,23.42
2022-10-23T19:49:15.046Z,21.27
2022-10-23T19:51:50.420Z,21.65
2022-10-23T19:54:17.626Z,20.30
2022-10-23T19:56:43.944Z,21.25
2022-10-23T19:59:12.923Z,19.30
2022-10-23T20:01:39.495Z,19.05
2022-10-23T20:04:05.946Z,20.48
2022-10-23T20:06:34.553Z,25.50
2022-10-23T20:09:02.557Z,57.17
2022-10-23T20:11:30.755Z,47.33
2022-10-23T20:13:57.807Z,49.10
2022-10-23T20:16:27.335Z,57.35
2022-10-23T20:18:53.977Z,62.40
2022-10-23T20:21:20.900Z,66.22
2022-10-23T20:23:47.714Z,63.20
2022-10-23T20:26:17.458Z,70.20
2022-10-23T20:28:47.039Z,66.30
2022-10-23T20:31:14.911Z,67.20
2022-10-23T20:33:42.299Z,63.70
2022-10-23T20:36:20.365Z,66.13
2022-10-23T20:38:46.783Z,71.60
2022-10-23T20:41:13.104Z,66.10
2022-10-23T20:43:39.519Z,64.20
2022-10-23T20:46:08.609Z,71.63
2022-10-23T20:48:39.264Z,67.50
2022-10-23T20:51:11.801Z,71.57
2022-10-23T20:53:38.894Z,72.45
2022-10-23T20:56:19.704Z,67.38
2022-10-23T20:58:46.370Z,66.63
2022-10-23T21:01:16.263Z,70.93
2022-10-23T21:03:43.456Z,71.93
2022-10-23T21:06:13.056Z,66.78
2022-10-23T21:08:40.799Z,69.63
2022-10-23T21:11:10.573Z,66.05
2022-10-23T21:13:36.882Z,65.93
2022-10-23T21:16:17.238Z,69.72
2022-10-23T21:18:46.632Z,66.97
2022-10-23T21:21:19.173Z,67.82
2022-10-23T21:23:47.729Z,68.65
2022-10-23T21:26:15.666Z,71.47
2022-10-23T21:28:55.730Z,70.57
2022-10-23T21:31:31.939Z,68.38
2022-10-23T21:33:59.548Z,66.03
2022-10-23T21:36:25.992Z,69.28
2022-10-23T21:38:54.610Z,68.78
2022-10-23T21:41:23.691Z,74.30
2022-10-23T21:43:54.861Z,69.80
2022-10-23T21:46:22.730Z,68.07
2022-10-23T21:48:49.199Z,69.55
2022-10-23T21:51:29.095Z,71.40
2022-10-23T21:53:56.873Z,69.32
2022-10-23T21:56:30.927Z,68.28
2022-10-23T21:58:59.199Z,68.63
2022-10-23T22:01:26.476Z,67.13
2022-10-23T22:03:53.282Z,68.68
2022-10-23T22:06:22.466Z,63.35
2022-10-23T22:08:50.388Z,60.83
2022-10-23T22:11:16.968Z,61.67
2022-10-23T22:13:44.314Z,63.63
2022-10-23T22:16:13.655Z,63.33
2022-10-23T22:18:40.801Z,61.55
2022-10-23T22:21:11.040Z,61.38
2022-10-23T22:23:37.952Z,59.45
2022-10-23T22:26:23.871Z,54.55
2022-10-23T22:28:52.103Z,55.67
2022-10-23T22:31:22.323Z,55.60
2022-10-23T22:33:49.171Z,61.35
2022-10-23T22:36:15.563Z,55.53
2022-10-23T22:38:42.425Z,57.38
2022-10-23T22:41:09.011Z,53.15
2022-10-23T22:43:35.417Z,59.20
2022-10-23T22:46:10.530Z,58.28
2022-10-23T22:48:37.802Z,50.88
2022-10-23T22:51:07.331Z,53.08
2022-10-23T22:53:35.305Z,55.00
2022-10-23T22:56:16.252Z,49.97
2022-10-23T22:58:43.022Z,46.92
2022-10-23T23:01:15.518Z,48.22
2022-10-23T23:03:42.857Z,51.08
2022-10-23T23:06:09.817Z,49.10
2022-10-23T23:08:38.505Z,47.20
2022-10-23T23:11:06.943Z,44.50
2022-10-23T23:13:33.999Z,41.45
2022-10-23T23:16:01.047Z,44.42
2022-10-23T23:18:27.850Z,43.92
2022-10-23T23:20:54.167Z,43.50
2022-10-23T23:23:20.604Z,44.13
2022-10-23T23:25:49.018Z,44.85
2022-10-23T23:28:18.172Z,45.05
2022-10-23T23:33:13.945Z,44.95
2022-10-23T23:35:41.907Z,43.42
2022-10-23T23:38:08.888Z,44.55
2022-10-23T23:40:35.314Z,45.78
2022-10-23T23:43:01.681Z,45.85
2022-10-23T23:45:28.157Z,44.55
2022-10-23T23:47:54.541Z,44.00
2022-10-23T23:50:21.034Z,45.40
2022-10-23T23:52:47.414Z,34.70
2022-10-23T23:55:14.154Z,35.70
2022-10-23T23:57:40.571Z,37.72
